Time;durP1;ratioP1;P1;durP2;ratioP2;P2;SDS_P1;SDS_P2;PMS_P1;PMS_P2;Temp;Humidity;BMP_temperature;BMP_pressure;BME280_temperature;BME280_humidity;BME280_pressure;Samples;Min_cycle;Max_cycle;Signal;HPM_P1;HPM_P2
2021/06/22 00:02:08;;;;;;;7.80;6.40;;;22.50;99.90;;;;;;5058548;28;20792;-87
2021/06/22 00:04:35;;;;;;;11.03;7.03;;;22.40;99.90;;;;;;5055981;28;20948;-86
2021/06/22 00:07:02;;;;;;;13.53;9.20;;;22.40;99.90;;;;;;5055417;28;21065;-86
2021/06/22 00:09:28;;;;;;;11.67;8.17;;;22.10;99.90;;;;;;5055019;28;20515;-86
2021/06/22 00:11:56;;;;;;;10.30;8.43;;;22.00;99.90;;;;;;5059242;28;20468;-85
2021/06/22 00:14:23;;;;;;;11.00;9.50;;;22.10;99.90;;;;;;5065446;28;20432;-86
2021/06/22 00:16:50;;;;;;;8.70;8.00;;;22.00;99.90;;;;;;5072588;28;20430;-85
2021/06/22 00:19:17;;;;;;;9.03;7.90;;;21.90;99.90;;;;;;5064825;28;20458;-85
2021/06/22 00:21:43;;;;;;;9.30;7.60;;;22.20;99.90;;;;;;5056260;28;20479;-85
2021/06/22 00:24:10;;;;;;;12.13;9.57;;;22.10;99.90;;;;;;5055829;28;20442;-85
2021/06/22 00:26:37;;;;;;;10.80;9.07;;;22.20;99.90;;;;;;5055507;28;20473;-86
2021/06/22 00:29:05;;;;;;;9.73;8.80;;;22.20;99.90;;;;;;5054670;28;20484;-85
2021/06/22 00:31:31;;;;;;;12.27;10.73;;;22.20;99.90;;;;;;5068001;28;20434;-86
2021/06/22 00:33:58;;;;;;;9.80;8.90;;;22.20;99.90;;;;;;5065598;28;20443;-85
2021/06/22 00:36:25;;;;;;;11.40;10.20;;;22.30;99.90;;;;;;5060679;28;20637;-86
2021/06/22 00:38:51;;;;;;;10.30;9.30;;;22.10;99.90;;;;;;5055860;28;20972;-84
2021/06/22 00:41:20;;;;;;;11.10;8.70;;;22.00;99.90;;;;;;5054958;28;20860;-86
2021/06/22 00:43:47;;;;;;;10.27;9.37;;;22.20;99.90;;;;;;5055165;28;20515;-86
2021/06/22 00:46:15;;;;;;;11.53;10.33;;;22.20;99.90;;;;;;5055325;28;20536;-85
2021/06/22 00:48:41;;;;;;;11.03;9.87;;;22.00;99.90;;;;;;5056255;28;20489;-85
2021/06/22 00:51:09;;;;;;;12.57;8.80;;;21.90;99.90;;;;;;5066973;28;20467;-85
2021/06/22 00:53:36;;;;;;;11.90;10.50;;;21.90;99.90;;;;;;5070792;28;20472;-85
2021/06/22 00:56:02;;;;;;;11.73;10.50;;;22.10;99.90;;;;;;5068388;28;20874;-85
2021/06/22 00:58:29;;;;;;;13.20;10.83;;;21.60;99.90;;;;;;5070299;28;20430;-85
2021/06/22 01:00:55;;;;;;;13.10;10.80;;;21.90;99.90;;;;;;5071024;28;20433;-85
2021/06/22 01:03:23;;;;;;;12.43;11.23;;;21.80;99.90;;;;;;5076553;28;20464;-84
2021/06/22 01:05:50;;;;;;;11.17;10.00;;;21.60;99.90;;;;;;5070503;28;20442;-86
2021/06/22 01:08:18;;;;;;;12.47;10.37;;;21.40;99.90;;;;;;5074610;28;20890;-85
2021/06/22 01:10:44;;;;;;;11.10;10.00;;;21.50;99.90;;;;;;5072283;28;20876;-85
2021/06/22 01:13:11;;;;;;;10.97;9.90;;;21.30;99.90;;;;;;5058551;28;20448;-86
2021/06/22 01:15:38;;;;;;;10.57;9.30;;;21.30;99.90;;;;;;5073940;28;20983;-85
2021/06/22 01:18:06;;;;;;;13.00;10.00;;;21.50;99.90;;;;;;5076375;28;20438;-84
2021/06/22 01:20:36;;;;;;;13.27;9.87;;;21.50;99.90;;;;;;5075674;28;20466;-85
2021/06/22 01:23:06;;;;;;;13.23;11.83;;;21.60;99.90;;;;;;5076359;28;20430;-85
2021/06/22 01:25:33;;;;;;;10.60;9.77;;;21.60;99.90;;;;;;5075616;28;20468;-85
2021/06/22 01:28:01;;;;;;;12.70;11.30;;;21.70;99.90;;;;;;5076826;28;20477;-85
2021/06/22 01:30:29;;;;;;;11.57;10.37;;;21.50;99.90;;;;;;5076141;28;20449;-85
2021/06/22 01:32:57;;;;;;;13.53;11.43;;;21.60;99.90;;;;;;5076334;28;20438;-85
2021/06/22 01:35:25;;;;;;;20.27;10.77;;;21.50;99.90;;;;;;5077519;28;20456;-83
2021/06/22 01:37:54;;;;;;;15.70;10.73;;;21.50;99.90;;;;;;5076573;28;20512;-85
2021/06/22 01:40:22;;;;;;;12.97;11.17;;;21.50;99.90;;;;;;5074008;28;20461;-86
2021/06/22 01:42:49;;;;;;;15.53;11.37;;;21.20;99.90;;;;;;5063430;28;20476;-86
2021/06/22 01:45:17;;;;;;;13.93;12.03;;;21.10;99.90;;;;;;5062242;28;20460;-85
2021/06/22 01:47:44;;;;;;;12.87;10.17;;;21.10;99.90;;;;;;5064736;28;20481;-86
2021/06/22 01:50:14;;;;;;;13.30;11.40;;;21.20;99.90;;;;;;5065164;28;20508;-85
2021/06/22 01:52:41;;;;;;;16.23;12.20;;;21.30;99.90;;;;;;5063902;28;20556;-85
2021/06/22 01:57:53;;;;;;;11.80;10.70;;;21.20;99.90;;;;;;5063270;28;20826;-86
2021/06/22 02:00:20;;;;;;;13.13;10.77;;;21.30;99.90;;;;;;5062291;28;20477;-86
2021/06/22 02:02:46;;;;;;;12.40;11.20;;;21.20;99.90;;;;;;5062070;28;20445;-85
2021/06/22 02:05:14;;;;;;;13.77;12.43;;;21.00;99.90;;;;;;5061362;28;20445;-86
2021/06/22 02:07:41;;;;;;;14.10;12.27;;;21.00;99.90;;;;;;5060099;28;20477;-86
2021/06/22 02:10:09;;;;;;;12.60;11.30;;;21.00;99.90;;;;;;5059735;28;20470;-86
2021/06/22 02:12:36;;;;;;;15.47;12.03;;;21.10;99.90;;;;;;5059582;28;20503;-86
2021/06/22 02:15:06;;;;;;;13.40;10.70;;;20.80;99.90;;;;;;5058738;28;20473;-86
2021/06/22 02:17:32;;;;;;;14.40;13.07;;;20.80;99.90;;;;;;5058621;28;20938;-86
2021/06/22 02:19:59;;;;;;;15.60;11.23;;;20.90;99.90;;;;;;5058110;28;20870;-86
2021/06/22 02:22:26;;;;;;;18.80;11.97;;;20.70;99.90;;;;;;5058141;28;20449;-85
2021/06/22 02:24:54;;;;;;;21.03;17.60;;;20.60;99.90;;;;;;5058420;28;20449;-85
2021/06/22 02:27:23;;;;;;;21.37;17.37;;;20.70;99.90;;;;;;5057623;28;20477;-85
2021/06/22 02:29:50;;;;;;;13.87;11.93;;;20.50;99.90;;;;;;5058015;28;20568;-86
2021/06/22 02:32:18;;;;;;;12.80;11.30;;;20.60;99.90;;;;;;5059043;28;20460;-86
2021/06/22 02:34:45;;;;;;;14.90;12.33;;;20.70;99.90;;;;;;5058409;28;20453;-86
2021/06/22 02:37:11;;;;;;;15.77;12.00;;;20.60;99.90;;;;;;5060032;28;20459;-86
2021/06/22 02:39:38;;;;;;;18.30;14.40;;;20.60;99.90;;;;;;5076645;28;20462;-86
2021/06/22 02:42:05;;;;;;;12.73;10.90;;;20.50;99.90;;;;;;5078552;28;20442;-85
2021/06/22 02:44:32;;;;;;;12.60;11.30;;;20.60;99.90;;;;;;5077576;28;20449;-86
2021/06/22 02:46:59;;;;;;;10.93;9.83;;;20.50;99.90;;;;;;5075806;28;20438;-86
2021/06/22 02:49:27;;;;;;;11.77;10.67;;;20.50;99.90;;;;;;5073564;28;20449;-86
2021/06/22 02:51:53;;;;;;;15.30;10.50;;;20.70;99.90;;;;;;5070106;28;20445;-86
2021/06/22 02:54:20;;;;;;;13.73;10.00;;;20.70;99.90;;;;;;5078357;28;20456;-85
2021/06/22 02:56:47;;;;;;;19.17;16.53;;;20.70;99.90;;;;;;5078365;28;20438;-83
2021/06/22 02:59:13;;;;;;;11.53;8.87;;;20.60;99.90;;;;;;5079442;28;20454;-83
2021/06/22 03:01:40;;;;;;;13.60;11.33;;;20.60;99.90;;;;;;5079316;28;20450;-84
2021/06/22 03:04:06;;;;;;;11.33;9.53;;;20.60;99.90;;;;;;5079558;28;20422;-86
2021/06/22 03:06:34;;;;;;;11.47;9.37;;;20.50;99.90;;;;;;5079341;28;20422;-84
2021/06/22 03:09:01;;;;;;;21.73;13.93;;;20.40;99.90;;;;;;5078720;28;20481;-84
2021/06/22 03:11:28;;;;;;;12.50;10.33;;;20.50;99.90;;;;;;5077220;28;20469;-86
2021/06/22 03:13:55;;;;;;;11.53;10.10;;;20.30;99.90;;;;;;5076536;28;20464;-85
2021/06/22 03:16:22;;;;;;;10.20;9.20;;;20.40;99.90;;;;;;5077485;28;20468;-85
2021/06/22 03:18:48;;;;;;;31.43;22.73;;;20.50;99.90;;;;;;5079073;28;20446;-83
2021/06/22 03:21:15;;;;;;;19.30;14.53;;;20.70;99.90;;;;;;5078121;28;20436;-86
2021/06/22 03:23:43;;;;;;;11.10;9.77;;;20.40;99.90;;;;;;5078899;28;20434;-85
2021/06/22 03:26:09;;;;;;;9.80;8.80;;;20.50;99.90;;;;;;5079097;28;20426;-85
2021/06/22 03:28:36;;;;;;;15.23;12.23;;;20.40;99.90;;;;;;5078450;28;20505;-85
2021/06/22 03:31:03;;;;;;;10.83;9.80;;;20.50;99.90;;;;;;5078812;28;20426;-84
2021/06/22 03:33:29;;;;;;;11.53;10.40;;;20.60;99.90;;;;;;5078805;28;20430;-84
2021/06/22 03:35:56;;;;;;;9.60;8.60;;;20.70;99.90;;;;;;5078634;28;20434;-85
2021/06/22 03:38:22;;;;;;;12.00;8.57;;;20.60;99.90;;;;;;5078039;28;20445;-85
2021/06/22 03:40:50;;;;;;;13.43;11.60;;;20.40;99.90;;;;;;5078052;28;20461;-85
2021/06/22 03:43:17;;;;;;;10.47;9.47;;;20.60;99.90;;;;;;5077400;28;20453;-85
2021/06/22 03:45:43;;;;;;;10.60;9.60;;;20.50;99.90;;;;;;5065483;28;20446;-85
2021/06/22 03:48:10;;;;;;;11.70;10.63;;;20.70;99.90;;;;;;5060657;28;20567;-85
2021/06/22 03:50:38;;;;;;;10.70;9.63;;;20.80;99.90;;;;;;5059585;28;20474;-86
2021/06/22 03:53:04;;;;;;;9.37;8.30;;;20.70;99.90;;;;;;5060254;28;20830;-85
2021/06/22 03:55:31;;;;;;;16.13;10.40;;;20.70;99.90;;;;;;5060710;28;20526;-85
2021/06/22 03:58:00;;;;;;;12.50;9.50;;;20.70;99.90;;;;;;5060697;28;20503;-85
2021/06/22 04:00:27;;;;;;;10.93;9.27;;;20.70;99.90;;;;;;5060487;28;20532;-86
2021/06/22 04:02:56;;;;;;;10.23;9.13;;;20.70;99.90;;;;;;5060922;28;20442;-85
2021/06/22 04:05:23;;;;;;;9.93;8.93;;;20.60;99.90;;;;;;5061609;28;20480;-85
2021/06/22 04:07:50;;;;;;;11.43;9.20;;;20.60;99.90;;;;;;5060899;28;20511;-85
2021/06/22 04:10:16;;;;;;;10.33;9.30;;;20.40;99.90;;;;;;5060987;28;21045;-85
2021/06/22 04:12:43;;;;;;;14.70;10.60;;;20.60;99.90;;;;;;5062369;28;20787;-85
2021/06/22 04:15:12;;;;;;;11.70;9.70;;;20.60;99.90;;;;;;5060373;28;20994;-85
2021/06/22 04:17:39;;;;;;;10.90;9.40;;;20.60;99.90;;;;;;5061204;28;20460;-85
2021/06/22 04:20:07;;;;;;;14.10;9.17;;;20.50;99.90;;;;;;5065285;28;20461;-85
2021/06/22 04:22:34;;;;;;;10.80;9.70;;;20.50;99.90;;;;;;5063737;28;20446;-85
2021/06/22 04:25:00;;;;;;;13.87;10.83;;;20.70;99.90;;;;;;5063650;28;20933;-85
2021/06/22 04:27:27;;;;;;;13.23;10.90;;;20.80;99.90;;;;;;5061901;28;20449;-85
2021/06/22 04:29:53;;;;;;;11.97;10.50;;;20.50;99.90;;;;;;5066250;22;20518;-85
2021/06/22 04:32:21;;;;;;;13.30;11.13;;;21.60;99.90;;;;;;5042603;28;20473;-85
2021/06/22 04:34:48;;;;;;;19.10;11.43;;;20.60;99.90;;;;;;5042715;28;20434;-85
2021/06/22 04:37:15;;;;;;;15.07;11.50;;;20.60;99.90;;;;;;5048951;28;20450;-84
2021/06/22 04:39:42;;;;;;;20.50;12.20;;;20.40;99.90;;;;;;5039569;28;20459;-83
2021/06/22 04:42:08;;;;;;;21.03;11.90;;;20.20;99.90;;;;;;5040710;28;20734;-86
2021/06/22 04:44:35;;;;;;;25.20;14.37;;;20.30;99.90;;;;;;5040601;28;20450;-83
2021/06/22 04:47:01;;;;;;;20.63;14.10;;;20.50;99.90;;;;;;5040762;28;20466;-85
2021/06/22 04:49:29;;;;;;;19.87;14.20;;;20.50;99.90;;;;;;5042095;28;20839;-85
2021/06/22 04:51:56;;;;;;;22.93;15.27;;;20.50;99.90;;;;;;5050241;28;20871;-83
2021/06/22 04:54:23;;;;;;;22.63;16.10;;;20.40;99.90;;;;;;5054497;28;20441;-84
2021/06/22 04:56:51;;;;;;;31.10;20.50;;;20.30;99.90;;;;;;5054636;28;20446;-83
2021/06/22 04:59:18;;;;;;;24.77;17.33;;;20.30;99.90;;;;;;5052441;28;20562;-84
2021/06/22 05:01:44;;;;;;;34.57;20.33;;;20.30;99.90;;;;;;5043640;28;20926;-84
2021/06/22 05:04:11;;;;;;;24.30;18.97;;;20.40;99.90;;;;;;5042505;28;20473;-84
2021/06/22 05:06:39;;;;;;;29.00;19.60;;;20.20;99.90;;;;;;5043621;28;20485;-84
2021/06/22 05:09:07;;;;;;;29.70;21.80;;;20.10;99.90;;;;;;5041758;28;20539;-84
2021/06/22 05:11:34;;;;;;;42.77;25.17;;;20.10;99.90;;;;;;5041294;28;20446;-84
2021/06/22 05:14:01;;;;;;;32.50;23.60;;;20.20;99.90;;;;;;5042254;28;20496;-83
2021/06/22 05:16:28;;;;;;;29.13;23.70;;;20.10;99.90;;;;;;5043247;28;20444;-84
2021/06/22 05:18:55;;;;;;;36.70;23.07;;;19.50;99.90;;;;;;5043903;28;20454;-85
2021/06/22 05:21:21;;;;;;;27.10;22.43;;;19.50;99.90;;;;;;5048052;28;20457;-85
2021/06/22 05:23:49;;;;;;;35.73;25.17;;;19.70;99.90;;;;;;5048375;28;20523;-85
2021/06/22 05:26:16;;;;;;;36.60;23.20;;;19.50;99.90;;;;;;5048368;28;20442;-85
2021/06/22 05:28:42;;;;;;;36.40;21.33;;;19.40;99.90;;;;;;5045941;28;20507;-85
2021/06/22 05:31:09;;;;;;;33.90;21.43;;;19.50;99.90;;;;;;5046113;28;20941;-85
2021/06/22 05:33:35;;;;;;;36.93;23.57;;;19.30;99.90;;;;;;5049114;28;20498;-86
2021/06/22 05:36:02;;;;;;;30.40;20.60;;;19.30;99.90;;;;;;5045912;28;20448;-84
2021/06/22 05:38:29;;;;;;;28.57;19.40;;;19.20;99.90;;;;;;5045801;28;20442;-84
2021/06/22 05:40:57;;;;;;;26.20;18.50;;;19.20;99.90;;;;;;5052685;28;20497;-84
2021/06/22 05:43:24;;;;;;;21.33;16.70;;;19.10;99.90;;;;;;5059361;28;20475;-85
2021/06/22 05:45:51;;;;;;;28.13;20.07;;;19.30;99.90;;;;;;5060660;28;20437;-84
2021/06/22 05:48:18;;;;;;;27.63;17.80;;;19.30;99.90;;;;;;5061486;28;20463;-85
2021/06/22 05:50:44;;;;;;;26.90;19.30;;;19.30;99.90;;;;;;5056540;28;20469;-84
2021/06/22 05:53:11;;;;;;;23.63;17.63;;;19.20;99.90;;;;;;5050326;28;20455;-85
2021/06/22 05:55:37;;;;;;;25.83;17.40;;;19.00;99.90;;;;;;5048158;28;20453;-83
2021/06/22 05:58:05;;;;;;;22.27;15.60;;;19.10;99.90;;;;;;5059950;28;20437;-83
2021/06/22 06:00:33;;;;;;;17.40;15.37;;;19.30;99.90;;;;;;5054365;28;20468;-84
2021/06/22 06:03:02;;;;;;;20.40;15.63;;;19.30;99.90;;;;;;5050781;28;20452;-83
2021/06/22 06:05:29;;;;;;;24.23;16.77;;;19.20;99.90;;;;;;5045246;28;20582;-84
2021/06/22 06:07:56;;;;;;;17.30;14.23;;;19.20;99.90;;;;;;5044970;28;20459;-84
2021/06/22 06:10:24;;;;;;;19.73;14.60;;;19.20;99.90;;;;;;5044162;28;20906;-84
2021/06/22 06:12:51;;;;;;;17.80;14.10;;;19.20;99.90;;;;;;5043943;28;20448;-85
2021/06/22 06:15:19;;;;;;;19.90;14.20;;;18.90;99.90;;;;;;5044164;28;20472;-85
2021/06/22 06:17:46;;;;;;;20.87;13.00;;;18.70;99.90;;;;;;5044935;28;20439;-84
2021/06/22 06:20:14;;;;;;;17.53;11.80;;;18.50;99.90;;;;;;5043604;28;20468;-84
2021/06/22 06:22:43;;;;;;;13.97;10.57;;;18.70;99.90;;;;;;5044371;28;20451;-84
2021/06/22 06:25:11;;;;;;;14.50;11.13;;;18.80;99.90;;;;;;5043987;28;20452;-84
2021/06/22 06:27:45;;;;;;;16.27;10.70;;;19.00;99.90;;;;;;5041900;28;20458;-84
2021/06/22 06:30:15;;;;;;;17.13;12.33;;;18.70;99.90;;;;;;5049942;28;20494;-83
2021/06/22 06:32:43;;;;;;;11.10;9.90;;;18.70;99.90;;;;;;5052042;28;20504;-84
2021/06/22 06:35:13;;;;;;;15.73;10.70;;;18.60;99.90;;;;;;5046632;28;20456;-82
2021/06/22 06:37:43;;;;;;;13.03;10.27;;;18.40;99.90;;;;;;5040525;28;20432;-84
2021/06/22 06:40:11;;;;;;;13.43;11.20;;;18.30;99.90;;;;;;5040501;28;20467;-82
2021/06/22 06:42:38;;;;;;;15.63;11.83;;;18.60;99.90;;;;;;5045329;28;20463;-81
2021/06/22 06:45:07;;;;;;;18.73;11.80;;;18.30;99.90;;;;;;5052067;28;20443;-81
2021/06/22 06:47:34;;;;;;;15.63;10.70;;;18.40;99.90;;;;;;5053597;28;20481;-81
2021/06/22 06:50:02;;;;;;;12.50;10.57;;;18.80;99.90;;;;;;5053176;28;20479;-81
2021/06/22 06:52:29;;;;;;;14.70;11.10;;;18.50;99.90;;;;;;5057501;28;20444;-81
2021/06/22 06:54:56;;;;;;;14.47;9.83;;;18.80;99.90;;;;;;5057433;28;20939;-82
2021/06/22 06:57:23;;;;;;;13.23;9.80;;;18.80;99.90;;;;;;5056986;28;20442;-82
2021/06/22 06:59:49;;;;;;;10.67;9.10;;;18.60;99.90;;;;;;5055802;28;20491;-79
2021/06/22 07:02:19;;;;;;;10.37;9.00;;;18.70;99.90;;;;;;5053809;28;20457;-81
2021/06/22 07:04:45;;;;;;;11.97;8.17;;;18.70;99.90;;;;;;5054988;28;20459;-83
2021/06/22 07:07:13;;;;;;;14.10;8.63;;;18.80;99.90;;;;;;5056224;28;20513;-83
2021/06/22 07:09:40;;;;;;;9.77;7.30;;;18.70;99.90;;;;;;5054636;28;20491;-83
2021/06/22 07:12:07;;;;;;;10.00;7.60;;;18.80;99.90;;;;;;5051521;28;20451;-82
2021/06/22 07:14:35;;;;;;;8.57;7.00;;;19.10;99.90;;;;;;5048037;28;20486;-84
2021/06/22 07:17:01;;;;;;;9.07;6.37;;;19.10;99.90;;;;;;5047664;28;20452;-82
2021/06/22 07:19:28;;;;;;;12.07;6.43;;;18.80;99.90;;;;;;5043590;28;20464;-83
2021/06/22 07:21:55;;;;;;;8.20;6.47;;;18.70;99.90;;;;;;5041483;28;20448;-83
2021/06/22 07:24:22;;;;;;;7.63;6.60;;;18.60;99.90;;;;;;5041763;28;20507;-83
2021/06/22 07:26:49;;;;;;;9.30;7.03;;;18.80;99.90;;;;;;5043783;28;20452;-83
2021/06/22 07:29:16;;;;;;;8.23;6.00;;;19.00;99.90;;;;;;5041597;28;21483;-82
2021/06/22 07:31:42;;;;;;;7.30;6.50;;;19.20;99.90;;;;;;5041767;28;20437;-83
2021/06/22 07:34:09;;;;;;;7.90;6.20;;;19.30;99.90;;;;;;5041506;28;20453;-83
2021/06/22 07:36:35;;;;;;;8.33;5.37;;;19.30;99.90;;;;;;5041066;28;20938;-82
2021/06/22 07:39:02;;;;;;;10.93;5.73;;;18.40;99.90;;;;;;5041403;28;20878;-83
2021/06/22 07:41:30;;;;;;;5.77;5.10;;;18.70;99.90;;;;;;5042050;28;20505;-82
2021/06/22 07:43:57;;;;;;;7.97;5.70;;;18.70;99.90;;;;;;5041650;28;20572;-84
2021/06/22 07:46:23;;;;;;;7.53;6.80;;;18.80;99.90;;;;;;5045404;28;20460;-82
2021/06/22 07:48:50;;;;;;;8.47;7.00;;;18.90;99.90;;;;;;5056301;28;20519;-81
2021/06/22 07:51:17;;;;;;;8.00;7.30;;;18.90;99.90;;;;;;5057280;28;20445;-81
2021/06/22 07:53:43;;;;;;;10.30;8.00;;;19.00;99.90;;;;;;5053937;28;20453;-83
2021/06/22 07:56:10;;;;;;;7.03;6.20;;;18.90;99.90;;;;;;5041774;28;20543;-81
2021/06/22 07:58:38;;;;;;;10.33;7.17;;;19.00;99.90;;;;;;5041901;28;20871;-81
2021/06/22 08:01:04;;;;;;;8.70;7.53;;;19.10;99.90;;;;;;5042711;28;20519;-80
2021/06/22 08:03:31;;;;;;;8.87;8.27;;;19.20;99.90;;;;;;5054303;28;20454;-80
2021/06/22 08:05:58;;;;;;;9.60;8.70;;;19.20;99.90;;;;;;5054751;28;20445;-81
2021/06/22 08:08:27;;;;;;;8.17;7.47;;;19.10;99.90;;;;;;5053369;28;20459;-80
2021/06/22 08:10:56;;;;;;;7.87;7.07;;;19.20;99.90;;;;;;5054435;28;20493;-83
2021/06/22 08:13:25;;;;;;;7.97;7.23;;;19.00;99.90;;;;;;5042609;28;20460;-83
2021/06/22 08:15:53;;;;;;;8.93;8.07;;;18.70;99.90;;;;;;5041343;28;20881;-83
2021/06/22 08:18:20;;;;;;;15.53;7.27;;;18.60;99.90;;;;;;5044891;28;20451;-84
2021/06/22 08:20:47;;;;;;;8.30;7.50;;;18.60;99.90;;;;;;5042555;28;20465;-82
2021/06/22 08:23:14;;;;;;;7.97;7.17;;;18.70;99.90;;;;;;5041321;28;20464;-82
2021/06/22 08:25:41;;;;;;;10.13;8.50;;;18.60;99.90;;;;;;5043168;28;20448;-83
2021/06/22 08:28:08;;;;;;;11.27;8.87;;;18.70;99.90;;;;;;5041670;28;20971;-82
2021/06/22 08:30:36;;;;;;;12.50;8.87;;;18.50;99.90;;;;;;5043041;28;20483;-86
2021/06/22 08:33:06;;;;;;;10.70;8.83;;;18.40;99.90;;;;;;5045220;28;20441;-82
2021/06/22 08:35:33;;;;;;;12.33;8.43;;;18.40;99.90;;;;;;5055978;28;20489;-81
2021/06/22 08:38:00;;;;;;;9.30;8.33;;;18.20;99.90;;;;;;5057525;28;20457;-82
2021/06/22 08:40:28;;;;;;;9.80;8.07;;;17.90;99.90;;;;;;5058257;28;20482;-82
2021/06/22 08:42:56;;;;;;;9.20;8.40;;;17.90;99.90;;;;;;5058211;28;20442;-83
2021/06/22 08:45:23;;;;;;;11.17;7.60;;;17.90;99.90;;;;;;5057515;28;20443;-81
2021/06/22 08:47:50;;;;;;;9.47;6.60;;;18.10;99.90;;;;;;5051245;28;20485;-83
2021/06/22 08:50:22;;;;;;;9.67;7.87;;;18.20;99.90;;;;;;5040466;28;20489;-84
2021/06/22 08:52:51;;;;;;;7.07;6.37;;;18.20;99.90;;;;;;5039553;28;20805;-83
2021/06/22 08:55:29;;;;;;;12.40;7.33;;;18.00;99.90;;;;;;5039076;28;20477;-83
2021/06/22 08:57:58;;;;;;;7.63;6.23;;;17.90;99.90;;;;;;5041001;28;20430;-83
2021/06/22 09:00:25;;;;;;;7.50;6.80;;;18.00;99.90;;;;;;5038579;28;20466;-83
2021/06/22 09:03:02;;;;;;;15.60;7.73;;;17.70;99.90;;;;;;5040568;28;20447;-84
2021/06/22 09:05:30;;;;;;;6.50;5.90;;;17.80;99.90;;;;;;5039662;28;20422;-83
2021/06/22 09:07:57;;;;;;;8.33;6.20;;;18.00;99.90;;;;;;5039536;28;20443;-83
2021/06/22 09:10:25;;;;;;;6.97;6.37;;;18.10;99.90;;;;;;5038558;28;20557;-82
2021/06/22 09:12:53;;;;;;;7.60;6.70;;;18.00;99.90;;;;;;5039362;28;20451;-85
2021/06/22 09:15:23;;;;;;;7.13;5.83;;;17.90;99.90;;;;;;5043273;28;20442;-84
2021/06/22 09:17:53;;;;;;;7.57;6.30;;;17.90;99.90;;;;;;5039211;28;20477;-82
2021/06/22 09:20:36;;;;;;;8.20;7.40;;;17.90;99.90;;;;;;5039204;28;20495;-82
2021/06/22 09:23:12;;;;;;;9.70;8.50;;;18.00;99.90;;;;;;5042272;28;20553;-84
2021/06/22 09:25:39;;;;;;;7.87;6.97;;;18.10;99.90;;;;;;5052732;28;20427;-80
2021/06/22 09:28:06;;;;;;;10.10;9.10;;;18.10;99.90;;;;;;5049471;28;20829;-84
2021/06/22 09:30:45;;;;;;;10.37;9.37;;;18.20;99.90;;;;;;5039826;28;20536;-83
2021/06/22 09:33:21;;;;;;;11.40;9.30;;;18.20;99.90;;;;;;5040881;28;20435;-84
2021/06/22 09:35:57;;;;;;;8.50;7.80;;;18.00;99.90;;;;;;5039896;28;20481;-82
2021/06/22 09:38:28;;;;;;;9.53;8.60;;;18.20;99.90;;;;;;5038915;28;20469;-81
2021/06/22 09:41:10;;;;;;;7.93;7.13;;;18.20;99.90;;;;;;5039928;28;20478;-84
2021/06/22 09:43:43;;;;;;;7.97;7.13;;;18.10;99.90;;;;;;5047872;28;20431;-82
2021/06/22 09:46:12;;;;;;;7.70;6.87;;;18.20;99.90;;;;;;5054817;28;20450;-81
2021/06/22 09:48:44;;;;;;;7.77;6.23;;;18.10;99.90;;;;;;5054581;28;20446;-82
2021/06/22 09:51:12;;;;;;;8.07;7.27;;;18.10;99.90;;;;;;5052362;28;20500;-82
2021/06/22 09:53:39;;;;;;;11.57;6.67;;;17.90;99.90;;;;;;5043729;28;20438;-84
2021/06/22 09:56:17;;;;;;;9.53;6.10;;;18.00;99.90;;;;;;5043871;28;20472;-83
2021/06/22 09:58:45;;;;;;;8.23;6.30;;;18.10;99.90;;;;;;5050983;28;20443;-81
2021/06/22 10:01:32;;;;;;;7.07;6.37;;;18.10;99.90;;;;;;5047818;28;20972;-83
2021/06/22 10:04:14;;;;;;;6.47;4.63;;;18.30;99.90;;;;;;5048232;28;20451;-82
2021/06/22 10:06:42;;;;;;;9.27;6.30;;;18.40;99.90;;;;;;5048778;28;20437;-82
2021/06/22 10:09:09;;;;;;;8.77;6.67;;;18.60;99.90;;;;;;5053218;28;20459;-81
2021/06/22 10:11:39;;;;;;;7.10;6.40;;;18.60;99.90;;;;;;5050813;28;20487;-81
2021/06/22 10:14:10;;;;;;;6.57;5.83;;;18.50;99.90;;;;;;5046743;28;20442;-84
2021/06/22 10:16:37;;;;;;;8.30;6.47;;;18.60;99.90;;;;;;5044082;28;20478;-85
2021/06/22 10:19:06;;;;;;;9.20;7.23;;;18.30;99.90;;;;;;5042513;28;20459;-84
2021/06/22 10:21:35;;;;;;;6.70;6.00;;;18.70;99.90;;;;;;5043170;28;20870;-83
2021/06/22 10:24:04;;;;;;;27.43;18.63;;;18.50;99.90;;;;;;5043043;28;20477;-83
2021/06/22 10:26:31;;;;;;;7.80;5.93;;;18.60;99.90;;;;;;5042661;28;20446;-83
2021/06/22 10:28:59;;;;;;;7.10;5.70;;;18.20;99.90;;;;;;5045320;28;20463;-83
2021/06/22 10:31:26;;;;;;;6.23;5.70;;;18.40;99.90;;;;;;5045162;28;20497;-83
2021/06/22 10:33:54;;;;;;;6.47;5.80;;;18.50;99.90;;;;;;5077445;22;20495;-85
2021/06/22 10:36:31;;;;;;;9.13;5.67;;;18.30;99.90;;;;;;5061469;28;20516;-85
2021/06/22 10:39:08;;;;;;;9.20;8.17;;;18.70;99.90;;;;;;5062226;28;20434;-85
2021/06/22 10:41:39;;;;;;;10.10;7.43;;;18.80;99.90;;;;;;5062874;28;20512;-85
2021/06/22 10:44:30;;;;;;;7.00;6.40;;;18.70;99.90;;;;;;5061895;28;20479;-85
2021/06/22 10:47:28;;;;;;;7.20;6.37;;;18.50;99.90;;;;;;5059231;28;20447;-87
2021/06/22 10:50:07;;;;;;;9.77;6.60;;;18.50;99.90;;;;;;5060089;28;20466;-84
2021/06/22 10:52:58;;;;;;;7.63;6.67;;;18.40;99.90;;;;;;5061919;28;20496;-86
2021/06/22 10:56:01;;;;;;;10.80;7.13;;;18.50;99.90;;;;;;5062508;28;20464;-86
2021/06/22 10:58:29;;;;;;;9.20;6.70;;;18.50;99.90;;;;;;5062771;28;20482;-86
2021/06/22 11:01:16;;;;;;;7.57;6.70;;;18.30;99.90;;;;;;5061471;28;20445;-84
2021/06/22 11:03:42;;;;;;;10.70;8.40;;;18.30;99.90;;;;;;5062051;28;20512;-85
2021/06/22 11:06:26;;;;;;;10.60;7.10;;;18.50;99.90;;;;;;5063007;28;20507;-85
2021/06/22 11:08:53;;;;;;;8.27;6.87;;;18.40;99.90;;;;;;5061628;28;20464;-85
2021/06/22 11:11:21;;;;;;;9.63;6.60;;;18.10;99.90;;;;;;5061532;28;20925;-85
2021/06/22 11:13:55;;;;;;;10.30;7.97;;;18.20;99.90;;;;;;5061489;28;20475;-84
2021/06/22 11:16:30;;;;;;;9.97;7.07;;;18.20;99.90;;;;;;5058737;28;20803;-86
2021/06/22 11:19:06;;;;;;;8.27;7.40;;;18.40;99.90;;;;;;5061499;28;20482;-86
2021/06/22 11:21:35;;;;;;;8.53;7.00;;;18.40;99.90;;;;;;5059172;28;20439;-86
2021/06/22 11:24:05;;;;;;;11.50;7.20;;;18.50;99.90;;;;;;5057628;28;20950;-86
2021/06/22 11:26:48;;;;;;;6.30;5.70;;;18.70;99.90;;;;;;5059512;28;20737;-86
2021/06/22 11:29:17;;;;;;;7.87;6.63;;;18.60;99.90;;;;;;5064817;28;20500;-86
2021/06/22 11:31:46;;;;;;;6.40;5.90;;;18.40;99.90;;;;;;5057472;28;20490;-86
2021/06/22 11:34:15;;;;;;;9.47;6.57;;;18.40;99.90;;;;;;5056726;28;20475;-86
2021/06/22 11:36:43;;;;;;;6.97;6.37;;;18.70;99.90;;;;;;5057278;28;20451;-86
2021/06/22 11:39:19;;;;;;;7.33;6.60;;;18.50;99.90;;;;;;5058369;28;20953;-86
2021/06/22 11:42:20;;;;;;;6.87;6.27;;;18.60;99.90;;;;;;5060379;28;20977;-85
2021/06/22 11:44:50;;;;;;;15.33;7.60;;;18.70;99.90;;;;;;5061588;28;20914;-86
2021/06/22 11:47:55;;;;;;;14.93;8.87;;;18.90;99.90;;;;;;5063111;28;20423;-84
2021/06/22 11:50:28;;;;;;;7.53;5.30;;;19.30;99.90;;;;;;5063496;28;20490;-85
2021/06/22 11:53:04;;;;;;;8.10;5.80;;;19.30;99.90;;;;;;5074857;28;20467;-85
2021/06/22 11:55:43;;;;;;;6.27;5.73;;;19.10;99.90;;;;;;5078295;28;20419;-84
2021/06/22 11:58:16;;;;;;;8.07;6.03;;;19.00;99.90;;;;;;5078590;28;20423;-84
2021/06/22 12:00:44;;;;;;;7.30;5.90;;;19.00;99.90;;;;;;5078262;28;20449;-85
2021/06/22 12:03:10;;;;;;;6.10;5.60;;;19.00;99.90;;;;;;5065587;28;20534;-86
2021/06/22 12:05:39;;;;;;;5.90;5.40;;;19.20;99.90;;;;;;5064634;28;20446;-85
2021/06/22 12:08:06;;;;;;;6.70;5.33;;;19.30;99.90;;;;;;5060346;28;21017;-81
2021/06/22 12:10:48;;;;;;;7.13;6.43;;;19.10;99.90;;;;;;5058500;28;20544;-81
2021/06/22 12:13:32;;;;;;;6.03;5.57;;;19.30;99.90;;;;;;5058073;28;20499;-81
2021/06/22 12:16:13;;;;;;;8.13;5.83;;;19.50;99.90;;;;;;5058326;28;20953;-81
2021/06/22 12:18:40;;;;;;;6.20;5.10;;;19.40;99.90;;;;;;5060417;28;20432;-81
2021/06/22 12:21:07;;;;;;;9.40;6.77;;;19.40;99.90;;;;;;5062323;28;20451;-81
2021/06/22 12:23:33;;;;;;;6.10;5.43;;;19.10;99.90;;;;;;5061650;28;20468;-82
2021/06/22 12:26:00;;;;;;;5.90;5.40;;;19.40;99.90;;;;;;5057185;28;20814;-80
2021/06/22 12:28:32;;;;;;;6.90;6.00;;;19.40;99.90;;;;;;5056177;28;20922;-80
2021/06/22 12:31:02;;;;;;;8.40;6.00;;;19.30;99.90;;;;;;5055621;28;20468;-81
2021/06/22 12:33:31;;;;;;;5.63;5.13;;;19.40;99.90;;;;;;5056406;28;20981;-81
2021/06/22 12:36:01;;;;;;;5.50;5.00;;;19.30;99.90;;;;;;5057493;28;20447;-80
2021/06/22 12:38:28;;;;;;;8.20;6.20;;;19.50;99.90;;;;;;5058242;28;20436;-80
2021/06/22 12:40:58;;;;;;;11.83;5.80;;;19.50;99.90;;;;;;5064146;28;20439;-80
2021/06/22 12:43:40;;;;;;;6.30;5.07;;;19.60;99.90;;;;;;5069513;28;20469;-81
2021/06/22 12:46:08;;;;;;;5.80;5.30;;;20.20;99.90;;;;;;5067601;28;20440;-80
2021/06/22 12:48:35;;;;;;;10.03;6.70;;;20.00;99.90;;;;;;5069733;28;20432;-80